sensor_id;sensor_type;location;lat;lon;timestamp;temperature;humidity
35603;DHT22;21725;50.836;4.368;2023-02-28T00:00:30;4.30;93.10
35603;DHT22;21725;50.836;4.368;2023-02-28T00:03:31;4.40;92.80
35603;DHT22;21725;50.836;4.368;2023-02-28T00:06:35;4.40;93.00
35603;DHT22;21725;50.836;4.368;2023-02-28T00:09:36;4.40;92.80
35603;DHT22;21725;50.836;4.368;2023-02-28T00:12:37;4.40;92.70
35603;DHT22;21725;50.836;4.368;2023-02-28T00:15:38;4.50;92.60
35603;DHT22;21725;50.836;4.368;2023-02-28T00:18:39;4.50;92.60
35603;DHT22;21725;50.836;4.368;2023-02-28T00:21:41;4.40;92.60
35603;DHT22;21725;50.836;4.368;2023-02-28T00:24:43;4.30;93.10
35603;DHT22;21725;50.836;4.368;2023-02-28T00:27:44;4.40;92.80
35603;DHT22;21725;50.836;4.368;2023-02-28T00:30:45;4.30;93.00
35603;DHT22;21725;50.836;4.368;2023-02-28T00:33:46;4.30;93.10
35603;DHT22;21725;50.836;4.368;2023-02-28T00:36:46;4.30;92.90
35603;DHT22;21725;50.836;4.368;2023-02-28T00:39:50;4.20;93.00
35603;DHT22;21725;50.836;4.368;2023-02-28T00:42:51;3.90;92.90
35603;DHT22;21725;50.836;4.368;2023-02-28T00:45:51;4.20;93.10
35603;DHT22;21725;50.836;4.368;2023-02-28T00:48:52;4.20;93.20
35603;DHT22;21725;50.836;4.368;2023-02-28T00:51:54;4.20;93.10
35603;DHT22;21725;50.836;4.368;2023-02-28T00:54:55;4.20;93.20
35603;DHT22;21725;50.836;4.368;2023-02-28T00:57:56;4.00;93.60
35603;DHT22;21725;50.836;4.368;2023-02-28T01:00:57;4.10;93.50
35603;DHT22;21725;50.836;4.368;2023-02-28T01:03:58;4.20;93.30
35603;DHT22;21725;50.836;4.368;2023-02-28T01:06:58;4.10;93.40
35603;DHT22;21725;50.836;4.368;2023-02-28T01:09:59;4.00;93.40
35603;DHT22;21725;50.836;4.368;2023-02-28T01:13:00;3.90;93.60
35603;DHT22;21725;50.836;4.368;2023-02-28T01:16:01;4.00;93.70
35603;DHT22;21725;50.836;4.368;2023-02-28T01:19:02;4.00;93.80
35603;DHT22;21725;50.836;4.368;2023-02-28T01:22:05;4.00;93.80
35603;DHT22;21725;50.836;4.368;2023-02-28T01:25:06;4.00;93.80
35603;DHT22;21725;50.836;4.368;2023-02-28T01:28:07;4.20;93.60
35603;DHT22;21725;50.836;4.368;2023-02-28T01:31:09;4.30;93.10
35603;DHT22;21725;50.836;4.368;2023-02-28T01:34:09;4.20;93.20
35603;DHT22;21725;50.836;4.368;2023-02-28T01:37:10;4.20;93.30
35603;DHT22;21725;50.836;4.368;2023-02-28T01:40:12;4.00;93.40
35603;DHT22;21725;50.836;4.368;2023-02-28T01:43:27;4.00;93.50
35603;DHT22;21725;50.836;4.368;2023-02-28T01:46:32;4.00;93.50
35603;DHT22;21725;50.836;4.368;2023-02-28T01:49:34;3.90;93.70
35603;DHT22;21725;50.836;4.368;2023-02-28T01:52:34;3.90;93.80
35603;DHT22;21725;50.836;4.368;2023-02-28T01:55:37;3.80;93.90
35603;DHT22;21725;50.836;4.368;2023-02-28T01:58:38;3.80;93.90
35603;DHT22;21725;50.836;4.368;2023-02-28T02:01:39;3.70;94.10
35603;DHT22;21725;50.836;4.368;2023-02-28T02:04:46;3.70;94.10
35603;DHT22;21725;50.836;4.368;2023-02-28T02:07:54;3.90;93.90
35603;DHT22;21725;50.836;4.368;2023-02-28T02:11:01;3.80;94.00
35603;DHT22;21725;50.836;4.368;2023-02-28T02:24:22;3.60;94.30
35603;DHT22;21725;50.836;4.368;2023-02-28T02:31:04;3.60;94.10
35603;DHT22;21725;50.836;4.368;2023-02-28T02:38:13;3.50;94.70
35603;DHT22;21725;50.836;4.368;2023-02-28T02:45:10;3.70;94.10
35603;DHT22;21725;50.836;4.368;2023-02-28T02:48:15;3.60;94.30
35603;DHT22;21725;50.836;4.368;2023-02-28T02:51:19;3.50;94.40
35603;DHT22;21725;50.836;4.368;2023-02-28T02:54:21;3.50;94.60
35603;DHT22;21725;50.836;4.368;2023-02-28T02:57:27;3.50;94.60
35603;DHT22;21725;50.836;4.368;2023-02-28T03:00:34;3.30;94.70
35603;DHT22;21725;50.836;4.368;2023-02-28T03:03:36;3.20;94.90
35603;DHT22;21725;50.836;4.368;2023-02-28T03:06:37;3.30;95.00
35603;DHT22;21725;50.836;4.368;2023-02-28T03:09:38;3.20;95.10
35603;DHT22;21725;50.836;4.368;2023-02-28T03:12:45;3.20;95.20
35603;DHT22;21725;50.836;4.368;2023-02-28T03:16:07;3.40;94.70
35603;DHT22;21725;50.836;4.368;2023-02-28T03:25:51;3.40;94.90
35603;DHT22;21725;50.836;4.368;2023-02-28T03:32:27;3.50;94.50
35603;DHT22;21725;50.836;4.368;2023-02-28T03:35:36;3.50;94.60
35603;DHT22;21725;50.836;4.368;2023-02-28T03:38:46;3.40;94.80
35603;DHT22;21725;50.836;4.368;2023-02-28T03:41:59;3.30;95.00
35603;DHT22;21725;50.836;4.368;2023-02-28T03:45:05;3.40;94.70
35603;DHT22;21725;50.836;4.368;2023-02-28T03:51:32;3.40;94.90
35603;DHT22;21725;50.836;4.368;2023-02-28T03:54:43;3.50;94.70
35603;DHT22;21725;50.836;4.368;2023-02-28T04:00:54;3.40;95.10
35603;DHT22;21725;50.836;4.368;2023-02-28T04:03:56;3.40;95.00
35603;DHT22;21725;50.836;4.368;2023-02-28T04:07:07;3.60;94.60
35603;DHT22;21725;50.836;4.368;2023-02-28T04:10:09;3.50;94.70
35603;DHT22;21725;50.836;4.368;2023-02-28T04:13:10;3.40;94.70
35603;DHT22;21725;50.836;4.368;2023-02-28T04:16:11;3.40;94.90
35603;DHT22;21725;50.836;4.368;2023-02-28T04:19:13;3.50;94.80
35603;DHT22;21725;50.836;4.368;2023-02-28T04:22:14;3.50;94.50
35603;DHT22;21725;50.836;4.368;2023-02-28T04:25:15;3.40;94.70
35603;DHT22;21725;50.836;4.368;2023-02-28T04:28:16;3.20;95.00
35603;DHT22;21725;50.836;4.368;2023-02-28T04:31:16;3.20;95.20
35603;DHT22;21725;50.836;4.368;2023-02-28T04:34:17;2.90;95.60
35603;DHT22;21725;50.836;4.368;2023-02-28T04:37:19;3.00;95.60
35603;DHT22;21725;50.836;4.368;2023-02-28T04:40:20;3.00;95.60
35603;DHT22;21725;50.836;4.368;2023-02-28T04:43:32;2.90;95.70
35603;DHT22;21725;50.836;4.368;2023-02-28T04:46:35;2.90;95.90
35603;DHT22;21725;50.836;4.368;2023-02-28T04:49:36;3.00;95.70
35603;DHT22;21725;50.836;4.368;2023-02-28T04:52:37;3.20;95.60
35603;DHT22;21725;50.836;4.368;2023-02-28T04:55:37;3.00;95.80
35603;DHT22;21725;50.836;4.368;2023-02-28T04:58:40;3.10;95.70
35603;DHT22;21725;50.836;4.368;2023-02-28T05:24:12;0.80;99.80
35603;DHT22;21725;50.836;4.368;2023-02-28T05:27:12;0.90;99.90
35603;DHT22;21725;50.836;4.368;2023-02-28T05:30:13;1.40;99.90
35603;DHT22;21725;50.836;4.368;2023-02-28T05:33:14;1.80;99.90
35603;DHT22;21725;50.836;4.368;2023-02-28T05:36:15;2.40;99.00
35603;DHT22;21725;50.836;4.368;2023-02-28T05:39:15;2.80;97.70
35603;DHT22;21725;50.836;4.368;2023-02-28T05:42:16;2.90;97.30
35603;DHT22;21725;50.836;4.368;2023-02-28T05:45:17;3.00;97.60
35603;DHT22;21725;50.836;4.368;2023-02-28T05:48:18;3.10;97.00
35603;DHT22;21725;50.836;4.368;2023-02-28T05:51:18;3.20;97.10
35603;DHT22;21725;50.836;4.368;2023-02-28T05:54:19;3.40;96.80
35603;DHT22;21725;50.836;4.368;2023-02-28T05:57:20;3.60;96.00
35603;DHT22;21725;50.836;4.368;2023-02-28T06:00:21;3.60;95.70
35603;DHT22;21725;50.836;4.368;2023-02-28T06:03:22;3.60;96.00
35603;DHT22;21725;50.836;4.368;2023-02-28T06:06:22;3.60;96.10
35603;DHT22;21725;50.836;4.368;2023-02-28T06:09:23;3.80;95.60
35603;DHT22;21725;50.836;4.368;2023-02-28T06:12:24;4.00;95.30
35603;DHT22;21725;50.836;4.368;2023-02-28T06:15:25;4.00;95.10
35603;DHT22;21725;50.836;4.368;2023-02-28T06:18:25;4.00;95.20
35603;DHT22;21725;50.836;4.368;2023-02-28T06:21:27;4.10;94.70
35603;DHT22;21725;50.836;4.368;2023-02-28T06:24:28;4.10;94.50
35603;DHT22;21725;50.836;4.368;2023-02-28T06:27:30;4.10;94.70
35603;DHT22;21725;50.836;4.368;2023-02-28T06:30:30;4.00;94.80
35603;DHT22;21725;50.836;4.368;2023-02-28T06:33:31;4.00;94.90
35603;DHT22;21725;50.836;4.368;2023-02-28T06:36:34;4.00;94.90
35603;DHT22;21725;50.836;4.368;2023-02-28T06:39:35;3.80;95.10
35603;DHT22;21725;50.836;4.368;2023-02-28T06:42:35;3.90;95.00
35603;DHT22;21725;50.836;4.368;2023-02-28T06:45:36;3.80;95.00
35603;DHT22;21725;50.836;4.368;2023-02-28T06:48:37;3.80;95.20
35603;DHT22;21725;50.836;4.368;2023-02-28T06:51:40;3.80;95.70
35603;DHT22;21725;50.836;4.368;2023-02-28T06:54:41;3.80;95.10
35603;DHT22;21725;50.836;4.368;2023-02-28T06:57:42;3.90;94.80
35603;DHT22;21725;50.836;4.368;2023-02-28T07:00:44;4.00;94.90
35603;DHT22;21725;50.836;4.368;2023-02-28T07:03:45;4.00;94.70
35603;DHT22;21725;50.836;4.368;2023-02-28T07:06:46;3.80;95.00
35603;DHT22;21725;50.836;4.368;2023-02-28T07:09:47;3.90;94.90
35603;DHT22;21725;50.836;4.368;2023-02-28T07:12:48;3.70;95.30
35603;DHT22;21725;50.836;4.368;2023-02-28T07:15:57;3.60;96.00
35603;DHT22;21725;50.836;4.368;2023-02-28T07:18:58;3.90;95.60
35603;DHT22;21725;50.836;4.368;2023-02-28T07:21:59;4.00;95.00
35603;DHT22;21725;50.836;4.368;2023-02-28T07:25:00;4.10;94.80
35603;DHT22;21725;50.836;4.368;2023-02-28T07:28:01;4.10;94.90
35603;DHT22;21725;50.836;4.368;2023-02-28T07:31:09;4.20;94.60
35603;DHT22;21725;50.836;4.368;2023-02-28T07:34:10;5.00;94.60
35603;DHT22;21725;50.836;4.368;2023-02-28T07:37:10;2.90;94.70
35603;DHT22;21725;50.836;4.368;2023-02-28T07:40:12;4.20;94.90
35603;DHT22;21725;50.836;4.368;2023-02-28T07:43:13;4.40;93.70
35603;DHT22;21725;50.836;4.368;2023-02-28T07:46:15;4.40;94.10
35603;DHT22;21725;50.836;4.368;2023-02-28T07:49:16;4.50;94.10
35603;DHT22;21725;50.836;4.368;2023-02-28T07:52:17;4.70;93.50
35603;DHT22;21725;50.836;4.368;2023-02-28T07:55:18;4.90;92.80
35603;DHT22;21725;50.836;4.368;2023-02-28T07:58:19;4.60;93.10
35603;DHT22;21725;50.836;4.368;2023-02-28T08:01:19;4.70;93.20
35603;DHT22;21725;50.836;4.368;2023-02-28T08:04:20;4.80;92.70
35603;DHT22;21725;50.836;4.368;2023-02-28T08:07:21;4.90;91.60
35603;DHT22;21725;50.836;4.368;2023-02-28T08:10:22;4.90;91.70
35603;DHT22;21725;50.836;4.368;2023-02-28T08:13:24;4.80;91.30
35603;DHT22;21725;50.836;4.368;2023-02-28T08:16:25;4.90;91.50
35603;DHT22;21725;50.836;4.368;2023-02-28T08:19:26;5.00;91.50
35603;DHT22;21725;50.836;4.368;2023-02-28T08:22:26;5.20;90.30
35603;DHT22;21725;50.836;4.368;2023-02-28T08:25:27;5.10;90.90
35603;DHT22;21725;50.836;4.368;2023-02-28T08:28:28;5.30;90.10
35603;DHT22;21725;50.836;4.368;2023-02-28T08:31:31;5.30;89.10
35603;DHT22;21725;50.836;4.368;2023-02-28T08:34:43;5.10;90.10
35603;DHT22;21725;50.836;4.368;2023-02-28T08:37:44;5.30;88.70
35603;DHT22;21725;50.836;4.368;2023-02-28T08:40:44;5.20;89.10
35603;DHT22;21725;50.836;4.368;2023-02-28T08:43:45;5.30;88.80
35603;DHT22;21725;50.836;4.368;2023-02-28T08:46:46;5.50;88.10
35603;DHT22;21725;50.836;4.368;2023-02-28T08:49:47;5.30;88.40
35603;DHT22;21725;50.836;4.368;2023-02-28T08:52:48;5.20;89.20
35603;DHT22;21725;50.836;4.368;2023-02-28T08:55:56;5.20;88.60
35603;DHT22;21725;50.836;4.368;2023-02-28T08:58:57;5.30;87.60
35603;DHT22;21725;50.836;4.368;2023-02-28T09:01:58;5.20;88.00
35603;DHT22;21725;50.836;4.368;2023-02-28T09:04:59;5.10;87.90
35603;DHT22;21725;50.836;4.368;2023-02-28T09:08:00;5.20;88.00
35603;DHT22;21725;50.836;4.368;2023-02-28T09:11:01;5.30;87.30
35603;DHT22;21725;50.836;4.368;2023-02-28T09:14:02;5.20;87.30
35603;DHT22;21725;50.836;4.368;2023-02-28T09:17:06;5.10;87.20
35603;DHT22;21725;50.836;4.368;2023-02-28T09:20:07;5.00;87.90
35603;DHT22;21725;50.836;4.368;2023-02-28T09:23:09;4.80;86.60
35603;DHT22;21725;50.836;4.368;2023-02-28T09:26:24;4.70;86.20
35603;DHT22;21725;50.836;4.368;2023-02-28T09:29:25;4.80;86.80
35603;DHT22;21725;50.836;4.368;2023-02-28T09:32:26;5.10;86.00
35603;DHT22;21725;50.836;4.368;2023-02-28T09:35:26;5.20;85.00
35603;DHT22;21725;50.836;4.368;2023-02-28T09:38:28;5.50;83.90
35603;DHT22;21725;50.836;4.368;2023-02-28T09:41:36;5.50;83.20
35603;DHT22;21725;50.836;4.368;2023-02-28T09:44:45;5.50;82.90
35603;DHT22;21725;50.836;4.368;2023-02-28T09:47:48;5.50;82.00
35603;DHT22;21725;50.836;4.368;2023-02-28T09:51:04;5.50;81.70
35603;DHT22;21725;50.836;4.368;2023-02-28T09:54:05;5.60;81.80
35603;DHT22;21725;50.836;4.368;2023-02-28T10:00:27;5.80;81.10
35603;DHT22;21725;50.836;4.368;2023-02-28T10:06:46;6.10;79.10
35603;DHT22;21725;50.836;4.368;2023-02-28T10:09:53;6.00;79.10
35603;DHT22;21725;50.836;4.368;2023-02-28T10:12:58;6.00;79.40
35603;DHT22;21725;50.836;4.368;2023-02-28T10:16:15;6.00;79.70
35603;DHT22;21725;50.836;4.368;2023-02-28T10:22:56;6.00;78.80
35603;DHT22;21725;50.836;4.368;2023-02-28T10:26:11;6.40;78.20
35603;DHT22;21725;50.836;4.368;2023-02-28T10:29:12;6.50;76.30
35603;DHT22;21725;50.836;4.368;2023-02-28T10:32:19;6.50;76.90
35603;DHT22;21725;50.836;4.368;2023-02-28T10:35:27;6.60;75.40
35603;DHT22;21725;50.836;4.368;2023-02-28T10:38:33;6.50;73.40
35603;DHT22;21725;50.836;4.368;2023-02-28T10:41:34;6.40;74.80
35603;DHT22;21725;50.836;4.368;2023-02-28T10:44:42;6.50;74.30
35603;DHT22;21725;50.836;4.368;2023-02-28T10:47:56;6.50;73.40
35603;DHT22;21725;50.836;4.368;2023-02-28T10:54:36;5.70;73.00
35603;DHT22;21725;50.836;4.368;2023-02-28T10:57:38;6.30;74.20
35603;DHT22;21725;50.836;4.368;2023-02-28T11:23:13;4.60;77.30
35603;DHT22;21725;50.836;4.368;2023-02-28T11:26:15;4.80;78.30
35603;DHT22;21725;50.836;4.368;2023-02-28T11:29:28;5.30;77.30
35603;DHT22;21725;50.836;4.368;2023-02-28T11:32:29;6.00;76.00
35603;DHT22;21725;50.836;4.368;2023-02-28T11:35:33;6.70;73.80
35603;DHT22;21725;50.836;4.368;2023-02-28T11:38:35;7.10;71.70
35603;DHT22;21725;50.836;4.368;2023-02-28T11:45:28;7.10;72.30
35603;DHT22;21725;50.836;4.368;2023-02-28T11:49:01;7.20;71.50
35603;DHT22;21725;50.836;4.368;2023-02-28T11:55:43;7.40;71.60
35603;DHT22;21725;50.836;4.368;2023-02-28T12:08:47;7.70;71.20
35603;DHT22;21725;50.836;4.368;2023-02-28T12:12:06;7.50;71.60
35603;DHT22;21725;50.836;4.368;2023-02-28T12:19:01;7.20;70.60
35603;DHT22;21725;50.836;4.368;2023-02-28T12:28:49;6.70;70.90
35603;DHT22;21725;50.836;4.368;2023-02-28T12:35:13;6.80;70.30
35603;DHT22;21725;50.836;4.368;2023-02-28T12:38:28;6.90;70.50
35603;DHT22;21725;50.836;4.368;2023-02-28T12:41:42;7.10;69.80
35603;DHT22;21725;50.836;4.368;2023-02-28T12:44:58;7.10;69.50
35603;DHT22;21725;50.836;4.368;2023-02-28T12:48:06;7.20;69.40
35603;DHT22;21725;50.836;4.368;2023-02-28T12:51:08;7.20;70.10
35603;DHT22;21725;50.836;4.368;2023-02-28T13:00:23;6.50;68.70
35603;DHT22;21725;50.836;4.368;2023-02-28T13:06:41;6.80;69.30
35603;DHT22;21725;50.836;4.368;2023-02-28T13:09:53;6.70;69.40
35603;DHT22;21725;50.836;4.368;2023-02-28T13:12:55;6.60;69.40
35603;DHT22;21725;50.836;4.368;2023-02-28T13:16:07;6.70;69.70
35603;DHT22;21725;50.836;4.368;2023-02-28T13:19:11;6.80;69.30
35603;DHT22;21725;50.836;4.368;2023-02-28T13:22:41;7.00;69.70
35603;DHT22;21725;50.836;4.368;2023-02-28T13:35:12;7.40;68.70
35603;DHT22;21725;50.836;4.368;2023-02-28T13:38:24;7.50;68.10
35603;DHT22;21725;50.836;4.368;2023-02-28T13:48:18;7.70;67.30
35603;DHT22;21725;50.836;4.368;2023-02-28T13:51:41;7.60;67.30
35603;DHT22;21725;50.836;4.368;2023-02-28T14:04:57;6.80;68.90
35603;DHT22;21725;50.836;4.368;2023-02-28T14:11:15;7.00;68.00
35603;DHT22;21725;50.836;4.368;2023-02-28T14:17:37;7.10;67.80
35603;DHT22;21725;50.836;4.368;2023-02-28T14:20:40;7.00;68.30
35603;DHT22;21725;50.836;4.368;2023-02-28T14:24:13;7.10;68.20
35603;DHT22;21725;50.836;4.368;2023-02-28T14:37:28;7.20;68.10
35603;DHT22;21725;50.836;4.368;2023-02-28T14:40:33;7.00;69.00
35603;DHT22;21725;50.836;4.368;2023-02-28T14:43:34;7.20;68.20
35603;DHT22;21725;50.836;4.368;2023-02-28T14:46:38;7.20;68.30
35603;DHT22;21725;50.836;4.368;2023-02-28T14:49:44;7.20;68.40
35603;DHT22;21725;50.836;4.368;2023-02-28T14:52:46;7.10;68.50
35603;DHT22;21725;50.836;4.368;2023-02-28T14:55:48;7.00;68.90
35603;DHT22;21725;50.836;4.368;2023-02-28T14:58:56;7.00;69.10
35603;DHT22;21725;50.836;4.368;2023-02-28T15:02:35;7.20;69.00
35603;DHT22;21725;50.836;4.368;2023-02-28T15:05:36;7.40;68.70
35603;DHT22;21725;50.836;4.368;2023-02-28T15:08:37;7.40;68.30
35603;DHT22;21725;50.836;4.368;2023-02-28T15:11:39;7.40;68.50
35603;DHT22;21725;50.836;4.368;2023-02-28T15:14:42;7.30;69.10
35603;DHT22;21725;50.836;4.368;2023-02-28T15:17:50;7.20;69.40
35603;DHT22;21725;50.836;4.368;2023-02-28T15:20:52;7.10;69.30
35603;DHT22;21725;50.836;4.368;2023-02-28T15:24:00;7.00;70.00
35603;DHT22;21725;50.836;4.368;2023-02-28T15:27:04;7.00;70.00
35603;DHT22;21725;50.836;4.368;2023-02-28T15:30:11;7.10;70.20
35603;DHT22;21725;50.836;4.368;2023-02-28T15:33:18;7.30;69.70
35603;DHT22;21725;50.836;4.368;2023-02-28T15:36:19;7.40;69.50
35603;DHT22;21725;50.836;4.368;2023-02-28T15:39:27;7.30;70.00
35603;DHT22;21725;50.836;4.368;2023-02-28T15:42:29;7.20;70.40
35603;DHT22;21725;50.836;4.368;2023-02-28T15:45:39;7.20;70.50
35603;DHT22;21725;50.836;4.368;2023-02-28T15:48:53;7.20;70.40
35603;DHT22;21725;50.836;4.368;2023-02-28T15:51:57;7.30;70.10
35603;DHT22;21725;50.836;4.368;2023-02-28T15:54:59;7.00;70.30
35603;DHT22;21725;50.836;4.368;2023-02-28T15:58:12;6.90;70.70
35603;DHT22;21725;50.836;4.368;2023-02-28T16:01:18;6.90;70.90
35603;DHT22;21725;50.836;4.368;2023-02-28T16:04:20;6.90;71.10
35603;DHT22;21725;50.836;4.368;2023-02-28T16:07:20;7.00;70.90
35603;DHT22;21725;50.836;4.368;2023-02-28T16:10:22;7.20;71.20
35603;DHT22;21725;50.836;4.368;2023-02-28T16:13:26;7.40;70.20
35603;DHT22;21725;50.836;4.368;2023-02-28T16:16:42;7.30;70.10
35603;DHT22;21725;50.836;4.368;2023-02-28T16:19:44;7.20;70.20
35603;DHT22;21725;50.836;4.368;2023-02-28T16:22:45;5.50;69.80
35603;DHT22;21725;50.836;4.368;2023-02-28T16:25:49;6.90;71.30
35603;DHT22;21725;50.836;4.368;2023-02-28T16:28:50;7.20;71.20
35603;DHT22;21725;50.836;4.368;2023-02-28T16:31:51;7.00;71.70
35603;DHT22;21725;50.836;4.368;2023-02-28T16:34:53;7.10;71.30
35603;DHT22;21725;50.836;4.368;2023-02-28T16:37:54;6.90;71.80
35603;DHT22;21725;50.836;4.368;2023-02-28T16:40:56;7.00;71.90
35603;DHT22;21725;50.836;4.368;2023-02-28T16:43:59;7.00;72.00
35603;DHT22;21725;50.836;4.368;2023-02-28T16:47:01;7.00;72.40
35603;DHT22;21725;50.836;4.368;2023-02-28T16:50:12;7.00;72.20
35603;DHT22;21725;50.836;4.368;2023-02-28T16:53:14;7.00;72.00
35603;DHT22;21725;50.836;4.368;2023-02-28T16:56:23;7.00;71.60
35603;DHT22;21725;50.836;4.368;2023-02-28T16:59:26;7.00;71.70
35603;DHT22;21725;50.836;4.368;2023-02-28T17:22:54;4.30;78.30
35603;DHT22;21725;50.836;4.368;2023-02-28T17:25:55;4.30;79.80
35603;DHT22;21725;50.836;4.368;2023-02-28T17:28:56;4.70;79.50
35603;DHT22;21725;50.836;4.368;2023-02-28T17:31:57;5.10;77.60
35603;DHT22;21725;50.836;4.368;2023-02-28T17:34:58;5.80;76.70
35603;DHT22;21725;50.836;4.368;2023-02-28T17:37:59;6.30;75.10
35603;DHT22;21725;50.836;4.368;2023-02-28T17:41:00;6.50;74.10
35603;DHT22;21725;50.836;4.368;2023-02-28T17:44:00;6.50;74.00
35603;DHT22;21725;50.836;4.368;2023-02-28T17:47:01;6.90;74.60
35603;DHT22;21725;50.836;4.368;2023-02-28T17:50:02;6.60;74.40
35603;DHT22;21725;50.836;4.368;2023-02-28T17:53:03;6.60;73.90
35603;DHT22;21725;50.836;4.368;2023-02-28T17:56:04;6.60;74.30
35603;DHT22;21725;50.836;4.368;2023-02-28T17:59:08;6.70;74.20
35603;DHT22;21725;50.836;4.368;2023-02-28T18:02:12;6.60;73.70
35603;DHT22;21725;50.836;4.368;2023-02-28T18:05:13;6.70;73.90
35603;DHT22;21725;50.836;4.368;2023-02-28T18:08:14;6.50;74.10
35603;DHT22;21725;50.836;4.368;2023-02-28T18:11:15;6.60;74.20
35603;DHT22;21725;50.836;4.368;2023-02-28T18:14:21;6.60;74.00
35603;DHT22;21725;50.836;4.368;2023-02-28T18:17:23;6.50;74.30
35603;DHT22;21725;50.836;4.368;2023-02-28T18:20:24;6.40;74.80
35603;DHT22;21725;50.836;4.368;2023-02-28T18:23:25;6.30;75.00
35603;DHT22;21725;50.836;4.368;2023-02-28T18:26:27;6.40;74.90
35603;DHT22;21725;50.836;4.368;2023-02-28T18:29:28;6.40;75.00
35603;DHT22;21725;50.836;4.368;2023-02-28T18:32:29;6.30;75.00
35603;DHT22;21725;50.836;4.368;2023-02-28T18:35:30;6.30;75.40
35603;DHT22;21725;50.836;4.368;2023-02-28T18:38:36;6.30;75.60
35603;DHT22;21725;50.836;4.368;2023-02-28T18:41:37;6.50;75.10
35603;DHT22;21725;50.836;4.368;2023-02-28T18:44:38;6.40;74.50
35603;DHT22;21725;50.836;4.368;2023-02-28T18:47:41;6.50;74.90
35603;DHT22;21725;50.836;4.368;2023-02-28T18:50:42;6.30;75.30
35603;DHT22;21725;50.836;4.368;2023-02-28T18:53:43;6.30;75.30
35603;DHT22;21725;50.836;4.368;2023-02-28T18:56:44;6.40;75.30
35603;DHT22;21725;50.836;4.368;2023-02-28T18:59:45;6.40;75.20
35603;DHT22;21725;50.836;4.368;2023-02-28T19:02:46;6.30;75.60
35603;DHT22;21725;50.836;4.368;2023-02-28T19:05:46;6.30;75.60
35603;DHT22;21725;50.836;4.368;2023-02-28T19:08:55;6.40;75.60
35603;DHT22;21725;50.836;4.368;2023-02-28T19:11:56;6.50;75.70
35603;DHT22;21725;50.836;4.368;2023-02-28T19:14:57;6.50;75.90
35603;DHT22;21725;50.836;4.368;2023-02-28T19:17:57;6.60;75.40
35603;DHT22;21725;50.836;4.368;2023-02-28T19:20:58;6.60;75.60
35603;DHT22;21725;50.836;4.368;2023-02-28T19:24:01;6.50;75.30
35603;DHT22;21725;50.836;4.368;2023-02-28T19:27:02;6.50;75.40
35603;DHT22;21725;50.836;4.368;2023-02-28T19:30:06;6.50;75.70
35603;DHT22;21725;50.836;4.368;2023-02-28T19:33:07;6.50;75.60
35603;DHT22;21725;50.836;4.368;2023-02-28T19:36:10;6.40;76.00
35603;DHT22;21725;50.836;4.368;2023-02-28T19:39:11;6.30;76.20
35603;DHT22;21725;50.836;4.368;2023-02-28T19:42:16;6.00;76.80
35603;DHT22;21725;50.836;4.368;2023-02-28T19:45:17;6.00;76.90
35603;DHT22;21725;50.836;4.368;2023-02-28T19:48:17;6.10;77.00
35603;DHT22;21725;50.836;4.368;2023-02-28T19:51:24;6.10;76.90
35603;DHT22;21725;50.836;4.368;2023-02-28T19:54:25;6.20;76.70
35603;DHT22;21725;50.836;4.368;2023-02-28T19:57:26;6.20;76.70
35603;DHT22;21725;50.836;4.368;2023-02-28T20:00:27;6.00;77.00
35603;DHT22;21725;50.836;4.368;2023-02-28T20:03:28;6.20;76.70
35603;DHT22;21725;50.836;4.368;2023-02-28T20:06:30;6.00;77.30
35603;DHT22;21725;50.836;4.368;2023-02-28T20:09:31;6.00;77.40
35603;DHT22;21725;50.836;4.368;2023-02-28T20:12:32;6.20;77.10
35603;DHT22;21725;50.836;4.368;2023-02-28T20:15:33;6.10;77.30
35603;DHT22;21725;50.836;4.368;2023-02-28T20:18:34;5.80;78.10
35603;DHT22;21725;50.836;4.368;2023-02-28T20:21:35;5.70;78.50
35603;DHT22;21725;50.836;4.368;2023-02-28T20:24:36;5.90;78.20
35603;DHT22;21725;50.836;4.368;2023-02-28T20:27:37;5.80;78.40
35603;DHT22;21725;50.836;4.368;2023-02-28T20:30:38;5.70;79.10
35603;DHT22;21725;50.836;4.368;2023-02-28T20:33:40;5.70;79.30
35603;DHT22;21725;50.836;4.368;2023-02-28T20:36:41;5.80;79.10
35603;DHT22;21725;50.836;4.368;2023-02-28T20:39:42;5.60;79.40
35603;DHT22;21725;50.836;4.368;2023-02-28T20:42:42;5.50;80.00
35603;DHT22;21725;50.836;4.368;2023-02-28T20:45:50;5.60;80.10
35603;DHT22;21725;50.836;4.368;2023-02-28T20:48:52;5.50;80.10
35603;DHT22;21725;50.836;4.368;2023-02-28T20:51:52;5.50;80.20
35603;DHT22;21725;50.836;4.368;2023-02-28T20:54:53;5.70;80.10
35603;DHT22;21725;50.836;4.368;2023-02-28T20:57:54;5.60;80.10
35603;DHT22;21725;50.836;4.368;2023-02-28T21:01:10;5.70;80.30
35603;DHT22;21725;50.836;4.368;2023-02-28T21:04:17;5.60;80.40
35603;DHT22;21725;50.836;4.368;2023-02-28T21:07:18;5.60;80.80
35603;DHT22;21725;50.836;4.368;2023-02-28T21:10:19;5.70;80.60
35603;DHT22;21725;50.836;4.368;2023-02-28T21:13:19;5.80;80.70
35603;DHT22;21725;50.836;4.368;2023-02-28T21:16:24;5.80;80.50
35603;DHT22;21725;50.836;4.368;2023-02-28T21:19:26;5.70;80.70
35603;DHT22;21725;50.836;4.368;2023-02-28T21:22:27;5.70;81.00
35603;DHT22;21725;50.836;4.368;2023-02-28T21:25:27;5.70;81.20
35603;DHT22;21725;50.836;4.368;2023-02-28T21:28:28;5.70;81.10
35603;DHT22;21725;50.836;4.368;2023-02-28T21:31:31;5.80;81.00
35603;DHT22;21725;50.836;4.368;2023-02-28T21:34:32;5.80;80.50
35603;DHT22;21725;50.836;4.368;2023-02-28T21:37:36;5.60;81.10
35603;DHT22;21725;50.836;4.368;2023-02-28T21:40:37;5.60;81.30
35603;DHT22;21725;50.836;4.368;2023-02-28T21:43:39;5.50;81.60
35603;DHT22;21725;50.836;4.368;2023-02-28T21:46:40;5.40;82.00
35603;DHT22;21725;50.836;4.368;2023-02-28T21:49:41;5.70;82.40
35603;DHT22;21725;50.836;4.368;2023-02-28T21:52:42;5.50;82.40
35603;DHT22;21725;50.836;4.368;2023-02-28T21:55:44;5.50;81.90
35603;DHT22;21725;50.836;4.368;2023-02-28T21:58:46;5.60;81.80
35603;DHT22;21725;50.836;4.368;2023-02-28T22:01:48;5.50;81.80
35603;DHT22;21725;50.836;4.368;2023-02-28T22:04:50;5.50;81.80
35603;DHT22;21725;50.836;4.368;2023-02-28T22:07:51;5.50;82.10
35603;DHT22;21725;50.836;4.368;2023-02-28T22:10:52;5.50;82.10
35603;DHT22;21725;50.836;4.368;2023-02-28T22:13:54;5.40;82.00
35603;DHT22;21725;50.836;4.368;2023-02-28T22:16:55;5.30;82.60
35603;DHT22;21725;50.836;4.368;2023-02-28T22:19:56;5.10;83.00
35603;DHT22;21725;50.836;4.368;2023-02-28T22:22:57;5.20;83.00
35603;DHT22;21725;50.836;4.368;2023-02-28T22:26:02;5.10;82.80
35603;DHT22;21725;50.836;4.368;2023-02-28T22:29:03;5.10;83.00
35603;DHT22;21725;50.836;4.368;2023-02-28T22:32:07;5.00;83.40
35603;DHT22;21725;50.836;4.368;2023-02-28T22:35:08;5.10;83.30
35603;DHT22;21725;50.836;4.368;2023-02-28T22:38:09;5.00;83.30
35603;DHT22;21725;50.836;4.368;2023-02-28T22:41:11;5.00;83.60
35603;DHT22;21725;50.836;4.368;2023-02-28T22:44:12;5.00;83.20
35603;DHT22;21725;50.836;4.368;2023-02-28T22:47:12;4.90;83.60
35603;DHT22;21725;50.836;4.368;2023-02-28T22:50:13;4.80;83.30
35603;DHT22;21725;50.836;4.368;2023-02-28T22:53:14;4.80;83.80
35603;DHT22;21725;50.836;4.368;2023-02-28T22:56:16;4.80;83.70